createdAt,value
2023-03-15T00:00:39.325Z,309.55
2023-03-15T00:03:05.886Z,305.88
2023-03-15T00:05:32.223Z,298.17
2023-03-15T00:07:58.793Z,289.15
2023-03-15T00:10:25.291Z,291.83
2023-03-15T00:12:51.684Z,285.92
2023-03-15T00:15:18.081Z,279.88
2023-03-15T00:17:44.589Z,269.73
2023-03-15T00:20:11.088Z,271.48
2023-03-15T00:22:37.616Z,263.50
2023-03-15T00:25:03.992Z,254.13
2023-03-15T00:27:30.371Z,250.55
2023-03-15T00:29:57.255Z,245.65
2023-03-15T00:32:23.830Z,243.65
2023-03-15T00:34:50.223Z,242.65
2023-03-15T00:37:17.050Z,231.18
2023-03-15T00:39:43.494Z,229.95
2023-03-15T00:42:09.857Z,223.55
2023-03-15T00:44:36.336Z,217.40
2023-03-15T00:47:02.736Z,214.38
2023-03-15T00:49:29.445Z,219.02
2023-03-15T00:51:55.840Z,210.52
2023-03-15T00:54:22.283Z,196.45
2023-03-15T00:56:48.589Z,195.68
2023-03-15T00:59:14.938Z,191.10
2023-03-15T01:01:41.688Z,186.13
2023-03-15T01:04:08.139Z,182.98
2023-03-15T01:06:34.548Z,178.45
2023-03-15T01:09:01.275Z,175.57
2023-03-15T01:11:27.564Z,177.60
2023-03-15T01:13:54.664Z,167.57
2023-03-15T01:16:21.017Z,168.23
2023-03-15T01:18:48.107Z,163.23
2023-03-15T01:21:14.655Z,157.75
2023-03-15T01:23:41.325Z,160.30
2023-03-15T01:26:07.764Z,153.05
2023-03-15T01:28:34.214Z,147.30
2023-03-15T01:31:00.599Z,147.52
2023-03-15T01:33:27.548Z,145.90
2023-03-15T01:35:53.955Z,141.95
2023-03-15T01:38:20.461Z,137.95
2023-03-15T01:40:46.764Z,139.18
2023-03-15T01:43:13.117Z,135.95
2023-03-15T01:45:39.987Z,131.73
2023-03-15T01:48:06.339Z,130.65
2023-03-15T01:50:32.765Z,127.85
2023-03-15T01:52:59.233Z,126.97
2023-03-15T01:55:25.775Z,120.65
2023-03-15T01:57:52.665Z,119.85
2023-03-15T02:00:19.390Z,119.70
2023-03-15T02:02:46.263Z,117.65
2023-03-15T02:05:13.357Z,116.05
2023-03-15T02:07:39.826Z,114.07
2023-03-15T02:10:06.324Z,108.47
2023-03-15T02:12:32.647Z,109.53
2023-03-15T02:14:59.048Z,106.97
2023-03-15T02:17:25.408Z,103.18
2023-03-15T02:19:53.016Z,105.10
2023-03-15T02:22:19.327Z,104.18
2023-03-15T02:24:46.117Z,97.82
2023-03-15T02:27:12.690Z,93.85
2023-03-15T02:29:39.067Z,93.63
2023-03-15T02:32:05.450Z,94.60
2023-03-15T02:34:31.913Z,92.93
2023-03-15T02:36:58.196Z,90.97
2023-03-15T02:39:24.741Z,88.00
2023-03-15T02:41:51.187Z,86.53
2023-03-15T02:44:17.968Z,83.60
2023-03-15T02:46:44.290Z,82.78
2023-03-15T02:49:11.487Z,84.63
2023-03-15T02:51:37.922Z,79.55
2023-03-15T02:54:04.395Z,80.28
2023-03-15T02:56:30.786Z,77.00
2023-03-15T02:58:57.094Z,76.50
2023-03-15T03:01:23.548Z,75.72
2023-03-15T03:03:49.958Z,73.35
2023-03-15T03:06:16.305Z,70.53
2023-03-15T03:08:43.072Z,70.57
2023-03-15T03:11:09.785Z,69.50
2023-03-15T03:13:36.105Z,69.63
2023-03-15T03:16:04.056Z,67.45
2023-03-15T03:18:30.924Z,65.78
2023-03-15T03:20:57.805Z,64.57
2023-03-15T03:23:24.120Z,64.65
2023-03-15T03:25:51.023Z,61.85
2023-03-15T03:28:17.314Z,61.13
2023-03-15T03:30:43.715Z,58.95
2023-03-15T03:33:10.812Z,58.47
2023-03-15T03:35:37.240Z,57.35
2023-03-15T03:38:04.201Z,57.45
2023-03-15T03:40:31.126Z,56.50
2023-03-15T03:42:57.493Z,56.28
2023-03-15T03:45:23.924Z,55.10
2023-03-15T03:47:50.352Z,53.13
2023-03-15T03:50:17.045Z,51.75
2023-03-15T03:52:43.377Z,50.88
2023-03-15T03:55:09.700Z,50.47
2023-03-15T03:57:36.089Z,49.58
2023-03-15T04:00:02.840Z,50.20
2023-03-15T04:02:29.617Z,47.47
2023-03-15T04:04:56.043Z,46.53
2023-03-15T04:07:22.438Z,45.30
2023-03-15T04:09:49.010Z,46.15
2023-03-15T04:12:15.318Z,44.75
2023-03-15T04:14:41.736Z,44.97
2023-03-15T04:17:08.131Z,44.42
2023-03-15T04:19:34.580Z,42.10
2023-03-15T04:22:00.860Z,40.85
2023-03-15T04:24:27.211Z,41.88
2023-03-15T04:26:53.681Z,39.63
2023-03-15T04:29:20.153Z,40.17
2023-03-15T04:31:46.617Z,38.38
2023-03-15T04:34:13.690Z,39.08
2023-03-15T04:36:40.983Z,39.13
2023-03-15T04:39:07.914Z,36.90
2023-03-15T04:41:34.256Z,35.45
2023-03-15T04:44:00.620Z,35.22
2023-03-15T04:46:26.975Z,35.70
2023-03-15T04:48:53.320Z,35.17
2023-03-15T04:51:19.724Z,34.03
2023-03-15T04:53:46.531Z,33.90
2023-03-15T04:56:13.139Z,32.63
2023-03-15T04:58:39.994Z,32.88
2023-03-15T05:01:06.379Z,31.88
2023-03-15T05:03:33.649Z,31.35
2023-03-15T05:05:59.996Z,31.75
2023-03-15T05:08:26.635Z,31.30
2023-03-15T05:10:53.080Z,30.15
2023-03-15T05:13:19.682Z,29.15
2023-03-15T05:15:46.050Z,28.15
2023-03-15T05:18:12.374Z,28.52
2023-03-15T05:20:39.431Z,28.05
2023-03-15T05:23:06.227Z,27.42
2023-03-15T05:25:32.771Z,28.08
2023-03-15T05:27:59.640Z,27.45
2023-03-15T05:30:26.604Z,26.42
2023-03-15T05:32:53.168Z,27.25
2023-03-15T05:35:19.743Z,25.30
2023-03-15T05:37:46.089Z,25.02
2023-03-15T05:40:12.576Z,24.95
2023-03-15T05:42:38.919Z,24.67
2023-03-15T05:45:05.210Z,23.83
2023-03-15T05:47:33.160Z,22.90
2023-03-15T05:50:00.396Z,23.33
2023-03-15T05:52:27.473Z,22.63
2023-03-15T05:54:53.856Z,22.42
2023-03-15T05:57:20.487Z,21.10
2023-03-15T05:59:47.387Z,22.08
2023-03-15T06:02:13.848Z,21.48
2023-03-15T06:04:40.391Z,21.38
2023-03-15T06:07:07.155Z,20.40
2023-03-15T06:09:33.535Z,20.48
2023-03-15T06:11:59.830Z,20.38
2023-03-15T06:14:26.691Z,19.77
2023-03-15T06:16:53.160Z,18.20
2023-03-15T06:19:19.699Z,18.92
2023-03-15T06:21:46.527Z,18.48
2023-03-15T06:24:13.318Z,16.83
2023-03-15T06:26:39.683Z,16.92
2023-03-15T06:29:06.022Z,17.52
2023-03-15T06:31:33.024Z,17.13
2023-03-15T06:33:59.595Z,16.48
2023-03-15T06:36:25.967Z,21.80
2023-03-15T06:38:52.295Z,23.95
2023-03-15T06:41:18.679Z,21.85
2023-03-15T06:43:45.139Z,24.40
2023-03-15T06:46:11.725Z,25.67
2023-03-15T06:48:38.149Z,24.42
2023-03-15T06:51:04.476Z,27.52
2023-03-15T06:53:30.948Z,26.92
2023-03-15T06:55:57.506Z,27.63
2023-03-15T06:58:23.919Z,26.80
2023-03-15T07:00:50.264Z,27.08
2023-03-15T07:03:17.077Z,25.95
2023-03-15T07:05:43.447Z,27.75
2023-03-15T07:08:10.469Z,27.08
2023-03-15T07:10:37.041Z,27.17
2023-03-15T07:13:03.498Z,27.10
2023-03-15T07:15:30.010Z,27.02
2023-03-15T07:17:56.819Z,27.10
2023-03-15T07:20:23.867Z,27.35
2023-03-15T07:22:50.314Z,27.80
2023-03-15T07:25:16.616Z,27.45
2023-03-15T07:27:43.006Z,27.00
2023-03-15T07:30:09.921Z,27.08
2023-03-15T07:32:36.749Z,25.58
2023-03-15T07:35:03.201Z,26.60
2023-03-15T07:37:29.644Z,26.63
2023-03-15T07:39:56.012Z,26.38
2023-03-15T07:42:22.352Z,26.73
2023-03-15T07:44:48.681Z,25.58
2023-03-15T07:47:16.077Z,26.25
2023-03-15T07:49:42.430Z,25.58
2023-03-15T07:52:09.038Z,25.10
2023-03-15T07:54:35.528Z,25.15
2023-03-15T07:57:02.255Z,25.02
2023-03-15T07:59:29.029Z,25.55
2023-03-15T08:01:55.482Z,23.33
2023-03-15T08:04:21.850Z,25.27
2023-03-15T08:06:48.252Z,23.85
2023-03-15T08:09:14.740Z,23.33
2023-03-15T08:11:42.163Z,23.55
2023-03-15T08:14:10.804Z,25.08
2023-03-15T08:16:37.634Z,23.23
2023-03-15T08:19:04.431Z,23.75
2023-03-15T08:21:30.799Z,23.13
2023-03-15T08:23:57.182Z,22.65
2023-03-15T08:26:23.856Z,22.73
2023-03-15T08:28:50.667Z,23.00
2023-03-15T08:31:17.819Z,22.13
2023-03-15T08:33:44.256Z,22.83
2023-03-15T08:36:10.972Z,21.65
2023-03-15T08:38:37.762Z,21.50
2023-03-15T08:41:04.473Z,21.65
2023-03-15T08:43:31.365Z,22.45
2023-03-15T08:46:01.147Z,20.38
2023-03-15T08:48:28.256Z,20.75
2023-03-15T08:50:54.594Z,20.80
2023-03-15T08:53:21.067Z,20.35
2023-03-15T08:55:47.441Z,20.63
2023-03-15T08:58:14.008Z,19.80
2023-03-15T09:00:40.644Z,19.67
2023-03-15T09:03:07.754Z,18.88
2023-03-15T09:05:34.223Z,18.67
2023-03-15T09:08:00.592Z,18.95
2023-03-15T09:10:27.033Z,18.85
2023-03-15T09:12:53.422Z,19.25
2023-03-15T09:15:20.172Z,18.80
2023-03-15T09:17:46.674Z,19.23
2023-03-15T09:20:13.100Z,19.60
2023-03-15T09:22:39.965Z,20.30
2023-03-15T09:25:06.457Z,18.17
2023-03-15T09:27:33.408Z,18.58
2023-03-15T09:29:59.829Z,19.17
2023-03-15T09:32:26.135Z,18.73
2023-03-15T09:34:52.873Z,19.45
2023-03-15T09:37:19.558Z,18.92
2023-03-15T09:39:45.986Z,19.85
2023-03-15T09:42:12.607Z,20.50
2023-03-15T09:44:39.114Z,20.13
2023-03-15T09:47:05.922Z,22.02
2023-03-15T09:49:32.740Z,21.27
2023-03-15T09:51:59.540Z,22.80
2023-03-15T09:54:25.940Z,23.45
2023-03-15T09:56:52.291Z,22.92
2023-03-15T09:59:18.630Z,22.40
2023-03-15T10:01:45.409Z,23.63
2023-03-15T10:04:11.815Z,24.35
2023-03-15T10:06:38.531Z,22.90
2023-03-15T10:09:04.844Z,23.60
2023-03-15T10:11:31.447Z,24.42
2023-03-15T10:13:58.024Z,23.10
2023-03-15T10:16:24.445Z,22.58
2023-03-15T10:18:51.280Z,23.30
2023-03-15T10:21:17.662Z,21.15
2023-03-15T10:23:44.551Z,23.35
2023-03-15T10:26:11.721Z,21.80
2023-03-15T10:28:39.055Z,21.90
2023-03-15T10:31:05.434Z,23.27
2023-03-15T10:33:32.881Z,24.63
2023-03-15T10:36:10.696Z,23.42
2023-03-15T10:38:37.660Z,23.92
2023-03-15T10:41:04.129Z,25.15
2023-03-15T10:43:30.482Z,25.83
2023-03-15T10:45:56.858Z,25.52
2023-03-15T10:48:23.597Z,25.75
2023-03-15T10:50:49.930Z,25.60
2023-03-15T10:53:17.015Z,25.23
2023-03-15T10:55:43.591Z,25.55
2023-03-15T10:58:10.012Z,26.15
2023-03-15T11:00:36.370Z,26.75
2023-03-15T11:03:03.809Z,26.20
2023-03-15T11:05:30.487Z,27.15
2023-03-15T11:07:57.722Z,27.15
2023-03-15T11:10:24.268Z,25.77
2023-03-15T11:12:50.766Z,27.05
2023-03-15T11:15:17.562Z,27.50
2023-03-15T11:17:44.482Z,28.15
2023-03-15T11:20:10.832Z,28.45
2023-03-15T11:22:37.554Z,28.48
2023-03-15T11:25:03.922Z,28.10
2023-03-15T11:27:30.190Z,30.02
2023-03-15T11:29:56.677Z,28.25
2023-03-15T11:32:23.490Z,29.85
2023-03-15T11:34:49.946Z,29.73
2023-03-15T11:37:16.322Z,29.33
2023-03-15T11:39:42.640Z,30.17
2023-03-15T11:42:11.093Z,32.63
2023-03-15T11:44:37.579Z,28.83
2023-03-15T11:47:03.983Z,29.23
2023-03-15T11:49:30.295Z,28.40
2023-03-15T11:51:57.259Z,28.70
2023-03-15T11:54:23.603Z,27.17
2023-03-15T11:56:50.045Z,28.15
2023-03-15T11:59:16.704Z,27.50
2023-03-15T12:01:43.087Z,27.55
2023-03-15T12:04:09.934Z,27.27
2023-03-15T12:06:36.282Z,27.65
2023-03-15T12:09:03.125Z,27.38
2023-03-15T12:11:29.897Z,26.48
2023-03-15T12:13:56.296Z,27.80
2023-03-15T12:16:23.494Z,26.40
2023-03-15T12:18:49.919Z,26.08
2023-03-15T12:21:16.997Z,26.38
2023-03-15T12:23:43.339Z,27.10
2023-03-15T12:26:09.819Z,25.05
2023-03-15T12:28:36.168Z,24.63
2023-03-15T12:31:02.921Z,24.90
2023-03-15T12:33:29.364Z,23.52
2023-03-15T12:35:55.815Z,24.27
2023-03-15T12:38:22.275Z,23.70
2023-03-15T12:40:49.419Z,24.58
2023-03-15T12:43:16.614Z,24.88
2023-03-15T12:45:43.047Z,24.10
2023-03-15T12:48:10.075Z,23.80
2023-03-15T12:50:36.691Z,23.55
2023-03-15T12:53:02.968Z,25.33
2023-03-15T12:55:29.711Z,22.73
2023-03-15T12:57:56.137Z,23.35
2023-03-15T13:00:23.221Z,23.17
2023-03-15T13:02:49.694Z,24.23
2023-03-15T13:05:16.141Z,23.40
2023-03-15T13:07:51.525Z,23.83
2023-03-15T13:10:18.629Z,23.70
2023-03-15T13:12:44.964Z,23.27
2023-03-15T13:15:11.927Z,22.13
2023-03-15T13:17:38.320Z,22.48
2023-03-15T13:20:05.294Z,23.48
2023-03-15T13:22:31.721Z,22.67
2023-03-15T13:24:58.046Z,23.45
2023-03-15T13:27:24.436Z,22.85
2023-03-15T13:29:50.698Z,24.73
2023-03-15T13:32:17.777Z,24.63
2023-03-15T13:34:44.600Z,23.55
2023-03-15T13:37:11.219Z,25.38
2023-03-15T13:39:37.793Z,23.73
2023-03-15T13:42:04.493Z,23.08
2023-03-15T13:44:31.103Z,21.65
2023-03-15T13:46:58.327Z,21.02
2023-03-15T13:49:24.761Z,20.98
2023-03-15T13:51:51.092Z,22.17
2023-03-15T13:54:17.560Z,22.55
2023-03-15T13:56:49.699Z,21.75
2023-03-15T13:59:16.422Z,21.70
2023-03-15T14:01:43.159Z,20.02
2023-03-15T14:04:10.123Z,21.40
2023-03-15T14:06:36.518Z,20.25
2023-03-15T14:09:02.966Z,19.38
2023-03-15T14:11:29.808Z,19.15
2023-03-15T14:13:56.919Z,19.52
2023-03-15T14:16:23.526Z,18.67
2023-03-15T14:18:49.897Z,18.10
2023-03-15T14:21:17.048Z,17.77
2023-03-15T14:23:43.648Z,16.85
2023-03-15T14:26:10.512Z,17.50
2023-03-15T14:28:37.007Z,16.45
2023-03-15T14:31:03.963Z,16.20
2023-03-15T14:33:30.422Z,16.30
2023-03-15T14:35:57.607Z,15.90
2023-03-15T14:38:24.724Z,16.77
2023-03-15T14:40:51.724Z,15.25
2023-03-15T14:43:18.040Z,15.82
2023-03-15T14:45:44.413Z,15.48
2023-03-15T14:48:10.882Z,14.63
2023-03-15T14:50:37.664Z,14.75
2023-03-15T14:53:04.087Z,14.85
2023-03-15T14:55:30.719Z,13.98
2023-03-15T14:57:57.089Z,13.45
2023-03-15T15:00:23.434Z,15.43
2023-03-15T15:02:49.774Z,14.63
2023-03-15T15:05:16.168Z,14.02
2023-03-15T15:07:42.603Z,12.98
2023-03-15T15:10:09.344Z,13.80
2023-03-15T15:12:36.414Z,13.15
2023-03-15T15:15:02.804Z,13.77
2023-03-15T15:17:29.669Z,12.93
2023-03-15T15:19:56.045Z,12.00
2023-03-15T15:22:22.546Z,12.75
2023-03-15T15:24:50.987Z,13.07
2023-03-15T15:27:17.943Z,12.68
2023-03-15T15:29:44.881Z,12.82
2023-03-15T15:32:11.368Z,12.85
2023-03-15T15:34:37.677Z,11.88
2023-03-15T15:37:04.160Z,11.93
2023-03-15T15:39:30.684Z,11.90
2023-03-15T15:41:57.129Z,11.73
2023-03-15T15:44:23.497Z,11.52
2023-03-15T15:46:49.935Z,12.15
2023-03-15T15:49:16.398Z,11.85
2023-03-15T15:51:42.929Z,12.13
2023-03-15T15:54:09.238Z,11.20
2023-03-15T15:56:35.605Z,11.88
2023-03-15T15:59:02.088Z,11.15
2023-03-15T16:01:28.484Z,11.82
2023-03-15T16:03:55.020Z,11.10
2023-03-15T16:06:21.867Z,10.43
2023-03-15T16:08:48.268Z,10.88
2023-03-15T16:11:14.728Z,10.57
2023-03-15T16:13:41.730Z,10.38
2023-03-15T16:16:08.088Z,10.07
2023-03-15T16:18:34.790Z,10.52
2023-03-15T16:21:02.049Z,10.73
2023-03-15T16:23:28.428Z,10.15
2023-03-15T16:25:54.757Z,10.20
2023-03-15T16:28:21.137Z,9.63
2023-03-15T16:30:47.422Z,9.63
2023-03-15T16:33:13.816Z,9.30
2023-03-15T16:35:40.543Z,8.98
2023-03-15T16:38:07.485Z,9.10
2023-03-15T16:40:33.795Z,9.68
2023-03-15T16:43:00.706Z,9.20
2023-03-15T16:45:27.558Z,9.18
2023-03-15T16:47:53.966Z,9.50
2023-03-15T16:50:20.955Z,9.30
2023-03-15T16:52:47.300Z,9.30
2023-03-15T16:55:13.821Z,8.85
2023-03-15T16:57:40.339Z,8.50
2023-03-15T17:00:06.739Z,8.95
2023-03-15T17:02:33.604Z,9.57
2023-03-15T17:04:59.994Z,8.35
2023-03-15T17:07:26.585Z,7.82
2023-03-15T17:09:53.209Z,8.13
2023-03-15T17:12:19.596Z,7.95
2023-03-15T17:14:46.011Z,7.03
2023-03-15T17:17:12.417Z,7.70
2023-03-15T17:19:38.722Z,8.40
2023-03-15T17:22:05.437Z,7.47
2023-03-15T17:24:31.809Z,7.80
2023-03-15T17:26:58.197Z,7.30
2023-03-15T17:29:24.594Z,7.50
2023-03-15T17:31:51.173Z,6.90
2023-03-15T17:34:18.937Z,7.43
2023-03-15T17:36:46.293Z,7.60
2023-03-15T17:39:13.346Z,6.70
2023-03-15T17:41:39.689Z,6.95
2023-03-15T17:44:06.102Z,7.00
2023-03-15T17:46:32.538Z,7.35
2023-03-15T17:48:58.809Z,6.35
2023-03-15T17:51:25.482Z,6.65
2023-03-15T17:53:51.797Z,6.75
2023-03-15T17:56:18.203Z,6.50
2023-03-15T17:58:44.579Z,6.35
2023-03-15T18:01:10.982Z,6.50
2023-03-15T18:03:37.922Z,6.65
2023-03-15T18:06:04.367Z,6.55
2023-03-15T18:08:31.210Z,6.30
2023-03-15T18:10:57.529Z,6.22
2023-03-15T18:13:24.170Z,6.20
2023-03-15T18:15:50.628Z,5.95
2023-03-15T18:18:17.600Z,6.25
2023-03-15T18:20:44.156Z,5.47
2023-03-15T18:23:10.935Z,5.70
2023-03-15T18:25:37.256Z,5.93
2023-03-15T18:28:03.980Z,5.43
2023-03-15T18:30:30.358Z,5.50
2023-03-15T18:32:57.155Z,5.85
2023-03-15T18:35:23.501Z,5.55
2023-03-15T18:37:50.285Z,5.70
2023-03-15T18:40:17.154Z,6.13
2023-03-15T18:42:44.032Z,5.18
2023-03-15T18:45:11.021Z,5.50
2023-03-15T18:47:37.319Z,5.10
2023-03-15T18:50:09.946Z,5.30
2023-03-15T18:52:37.074Z,5.35
2023-03-15T18:55:03.869Z,5.65
2023-03-15T18:57:30.324Z,5.75
2023-03-15T18:59:57.253Z,4.80
2023-03-15T19:02:24.104Z,5.00
2023-03-15T19:04:50.472Z,5.07
2023-03-15T19:07:17.046Z,5.28
2023-03-15T19:09:43.541Z,5.20
2023-03-15T19:12:10.527Z,5.38
2023-03-15T19:14:37.016Z,4.68
2023-03-15T19:17:03.600Z,4.95
2023-03-15T19:19:30.190Z,4.45
2023-03-15T19:21:56.620Z,4.35
2023-03-15T19:24:23.362Z,4.10
2023-03-15T19:26:49.683Z,5.03
2023-03-15T19:29:16.355Z,4.47
2023-03-15T19:31:42.945Z,4.88
2023-03-15T19:34:09.962Z,4.65
2023-03-15T19:36:37.029Z,4.75
2023-03-15T19:39:03.481Z,4.18
2023-03-15T19:41:31.002Z,4.47
2023-03-15T19:43:57.674Z,4.85
2023-03-15T19:46:24.166Z,4.22
2023-03-15T19:48:51.324Z,4.60
2023-03-15T19:51:17.657Z,4.07
2023-03-15T19:53:44.038Z,4.40
2023-03-15T19:56:10.950Z,3.88
2023-03-15T19:58:37.324Z,4.22
2023-03-15T20:01:03.596Z,3.95
2023-03-15T20:03:30.484Z,3.67
2023-03-15T20:05:56.820Z,3.88
2023-03-15T20:08:26.270Z,4.00
2023-03-15T20:10:52.676Z,4.00
2023-03-15T20:13:19.651Z,4.07
2023-03-15T20:15:46.261Z,3.60
2023-03-15T20:18:12.699Z,4.35
2023-03-15T20:20:39.596Z,3.60
2023-03-15T20:23:06.005Z,4.43
2023-03-15T20:25:32.547Z,3.67
2023-03-15T20:27:59.326Z,3.42
2023-03-15T20:30:25.682Z,3.50
2023-03-15T20:32:52.596Z,3.88
2023-03-15T20:35:19.406Z,3.58
2023-03-15T20:37:45.896Z,3.33
2023-03-15T20:40:12.299Z,3.58
2023-03-15T20:42:39.294Z,3.47
2023-03-15T20:45:05.854Z,3.92
2023-03-15T20:47:32.244Z,3.67
2023-03-15T20:49:58.669Z,3.85
2023-03-15T20:52:26.028Z,3.30
2023-03-15T20:54:52.835Z,3.70
2023-03-15T20:57:19.756Z,3.53
2023-03-15T20:59:46.308Z,3.40
2023-03-15T21:02:13.187Z,3.13
2023-03-15T21:04:39.861Z,3.45
2023-03-15T21:07:06.189Z,3.40
2023-03-15T21:09:33.386Z,3.22
2023-03-15T21:12:00.201Z,3.70
2023-03-15T21:14:27.794Z,3.30
2023-03-15T21:16:54.128Z,3.45
2023-03-15T21:19:20.491Z,3.20
2023-03-15T21:21:46.839Z,3.20
2023-03-15T21:24:13.960Z,3.28
2023-03-15T21:26:40.326Z,3.35
2023-03-15T21:29:06.745Z,3.33
2023-03-15T21:31:33.054Z,3.08
2023-03-15T21:33:59.646Z,2.95
2023-03-15T21:36:26.444Z,2.78
2023-03-15T21:38:53.604Z,2.65
2023-03-15T21:41:20.162Z,2.50
2023-03-15T21:43:47.111Z,2.65
2023-03-15T21:46:13.646Z,2.85
2023-03-15T21:48:40.189Z,2.78
2023-03-15T21:51:06.588Z,3.33
2023-03-15T21:53:33.441Z,2.78
2023-03-15T21:56:00.229Z,2.80
2023-03-15T21:58:28.015Z,2.72
2023-03-15T22:00:54.348Z,2.78
2023-03-15T22:03:21.067Z,2.95
2023-03-15T22:05:47.935Z,2.60
2023-03-15T22:08:14.665Z,2.53
2023-03-15T22:10:41.380Z,2.80
2023-03-15T22:13:07.946Z,3.20
2023-03-15T22:15:34.241Z,2.80
2023-03-15T22:18:00.714Z,2.90
2023-03-15T22:20:27.607Z,2.72
2023-03-15T22:22:54.014Z,2.67
2023-03-15T22:25:20.626Z,3.03
2023-03-15T22:27:47.065Z,2.55
2023-03-15T22:30:13.417Z,2.55
2023-03-15T22:32:40.348Z,2.78
2023-03-15T22:35:06.891Z,2.65
2023-03-15T22:37:33.176Z,2.40
2023-03-15T22:39:59.514Z,2.80
2023-03-15T22:42:25.895Z,2.95
2023-03-15T22:44:52.234Z,2.67
2023-03-15T22:47:18.712Z,2.60
2023-03-15T22:49:45.188Z,2.75
2023-03-15T22:52:11.845Z,2.90
2023-03-15T22:54:38.243Z,2.10
2023-03-15T22:57:05.399Z,2.33
2023-03-15T22:59:32.333Z,2.58
2023-03-15T23:01:58.706Z,2.30
2023-03-15T23:04:25.302Z,2.70
2023-03-15T23:06:52.019Z,2.55
2023-03-15T23:09:18.569Z,2.40
2023-03-15T23:11:45.387Z,2.40
2023-03-15T23:14:11.928Z,2.67
2023-03-15T23:16:38.270Z,2.63
2023-03-15T23:19:05.319Z,2.63
2023-03-15T23:21:32.181Z,2.60
2023-03-15T23:23:58.535Z,2.47
2023-03-15T23:26:24.898Z,2.72
2023-03-15T23:28:51.406Z,2.65
2023-03-15T23:31:17.822Z,2.53
2023-03-15T23:33:44.751Z,2.33
2023-03-15T23:36:11.332Z,2.80
2023-03-15T23:38:37.819Z,2.67
2023-03-15T23:41:04.154Z,2.45
2023-03-15T23:43:30.658Z,2.70
2023-03-15T23:45:57.127Z,2.55
2023-03-15T23:48:23.510Z,2.60
2023-03-15T23:50:50.052Z,2.63
2023-03-15T23:53:17.032Z,2.80
2023-03-15T23:55:43.429Z,2.70
2023-03-15T23:58:09.862Z,2.60
